sensor_id;sensor_type;location;lat;lon;timestamp;temperature;humidity
12827;DHT22;66927;48.812;9.118;2023-02-24T00:01:35;9.10;99.90
12827;DHT22;66927;48.812;9.118;2023-02-24T00:04:09;9.10;99.90
12827;DHT22;66927;48.812;9.118;2023-02-24T00:06:37;9.10;99.90
12827;DHT22;66927;48.812;9.118;2023-02-24T00:09:15;9.10;99.90
12827;DHT22;66927;48.812;9.118;2023-02-24T00:11:44;9.00;99.90
12827;DHT22;66927;48.812;9.118;2023-02-24T00:14:13;9.10;99.90
12827;DHT22;66927;48.812;9.118;2023-02-24T00:16:42;9.10;99.90
12827;DHT22;66927;48.812;9.118;2023-02-24T00:19:15;9.10;99.90
12827;DHT22;66927;48.812;9.118;2023-02-24T00:21:41;9.10;99.90
12827;DHT22;66927;48.812;9.118;2023-02-24T00:24:08;9.10;99.90
12827;DHT22;66927;48.812;9.118;2023-02-24T00:26:34;9.00;99.90
12827;DHT22;66927;48.812;9.118;2023-02-24T00:29:02;9.10;99.90
12827;DHT22;66927;48.812;9.118;2023-02-24T00:31:28;9.20;99.90
12827;DHT22;66927;48.812;9.118;2023-02-24T00:33:58;9.10;99.90
12827;DHT22;66927;48.812;9.118;2023-02-24T00:36:29;9.10;99.90
12827;DHT22;66927;48.812;9.118;2023-02-24T00:39:00;9.10;99.90
12827;DHT22;66927;48.812;9.118;2023-02-24T00:41:28;9.20;99.90
12827;DHT22;66927;48.812;9.118;2023-02-24T00:43:57;9.10;99.90
12827;DHT22;66927;48.812;9.118;2023-02-24T00:46:24;9.10;99.90
12827;DHT22;66927;48.812;9.118;2023-02-24T00:48:52;9.10;99.90
12827;DHT22;66927;48.812;9.118;2023-02-24T00:51:23;9.10;99.90
12827;DHT22;66927;48.812;9.118;2023-02-24T00:53:54;9.10;99.90
12827;DHT22;66927;48.812;9.118;2023-02-24T00:56:25;9.10;99.90
12827;DHT22;66927;48.812;9.118;2023-02-24T00:58:58;9.20;99.90
12827;DHT22;66927;48.812;9.118;2023-02-24T01:01:26;9.20;99.90
12827;DHT22;66927;48.812;9.118;2023-02-24T01:03:54;9.20;99.90
12827;DHT22;66927;48.812;9.118;2023-02-24T01:06:21;9.20;99.90
12827;DHT22;66927;48.812;9.118;2023-02-24T01:08:48;9.20;99.90
12827;DHT22;66927;48.812;9.118;2023-02-24T01:11:17;9.10;99.90
12827;DHT22;66927;48.812;9.118;2023-02-24T01:14:09;9.20;99.90
12827;DHT22;66927;48.812;9.118;2023-02-24T01:16:35;9.10;99.90
12827;DHT22;66927;48.812;9.118;2023-02-24T01:19:02;9.10;99.90
12827;DHT22;66927;48.812;9.118;2023-02-24T01:21:29;9.10;99.90
12827;DHT22;66927;48.812;9.118;2023-02-24T01:23:56;9.20;99.90
12827;DHT22;66927;48.812;9.118;2023-02-24T01:26:24;9.20;99.90
12827;DHT22;66927;48.812;9.118;2023-02-24T01:28:52;9.30;99.90
12827;DHT22;66927;48.812;9.118;2023-02-24T01:31:18;9.30;99.90
12827;DHT22;66927;48.812;9.118;2023-02-24T01:33:49;9.20;99.90
12827;DHT22;66927;48.812;9.118;2023-02-24T01:38:41;9.20;99.90
12827;DHT22;66927;48.812;9.118;2023-02-24T01:41:09;9.20;99.90
12827;DHT22;66927;48.812;9.118;2023-02-24T01:44:02;9.20;99.90
12827;DHT22;66927;48.812;9.118;2023-02-24T01:51:40;9.10;99.90
12827;DHT22;66927;48.812;9.118;2023-02-24T01:54:11;9.10;99.90
12827;DHT22;66927;48.812;9.118;2023-02-24T01:56:39;9.00;99.90
12827;DHT22;66927;48.812;9.118;2023-02-24T01:59:06;9.00;99.90
12827;DHT22;66927;48.812;9.118;2023-02-24T02:04:19;9.00;99.90
12827;DHT22;66927;48.812;9.118;2023-02-24T02:06:48;9.00;99.90
12827;DHT22;66927;48.812;9.118;2023-02-24T02:09:14;9.00;99.90
12827;DHT22;66927;48.812;9.118;2023-02-24T02:11:41;9.00;99.90
12827;DHT22;66927;48.812;9.118;2023-02-24T02:14:08;9.00;99.90
12827;DHT22;66927;48.812;9.118;2023-02-24T02:16:37;9.00;99.90
12827;DHT22;66927;48.812;9.118;2023-02-24T02:24:40;8.90;99.90
12827;DHT22;66927;48.812;9.118;2023-02-24T02:27:26;8.90;99.90
12827;DHT22;66927;48.812;9.118;2023-02-24T02:35:53;8.80;99.90
12827;DHT22;66927;48.812;9.118;2023-02-24T02:38:35;8.80;99.90
12827;DHT22;66927;48.812;9.118;2023-02-24T02:44:09;8.90;99.90
12827;DHT22;66927;48.812;9.118;2023-02-24T02:46:59;8.90;99.90
12827;DHT22;66927;48.812;9.118;2023-02-24T02:49:41;8.90;99.90
12827;DHT22;66927;48.812;9.118;2023-02-24T02:52:16;8.90;99.90
12827;DHT22;66927;48.812;9.118;2023-02-24T02:55:02;8.90;99.90
12827;DHT22;66927;48.812;9.118;2023-02-24T02:57:32;8.90;99.90
12827;DHT22;66927;48.812;9.118;2023-02-24T03:00:20;8.80;99.90
12827;DHT22;66927;48.812;9.118;2023-02-24T03:02:50;8.70;99.90
12827;DHT22;66927;48.812;9.118;2023-02-24T03:05:19;8.70;99.90
12827;DHT22;66927;48.812;9.118;2023-02-24T03:07:50;8.60;99.90
12827;DHT22;66927;48.812;9.118;2023-02-24T03:10:27;8.60;99.90
12827;DHT22;66927;48.812;9.118;2023-02-24T03:12:56;8.60;99.90
12827;DHT22;66927;48.812;9.118;2023-02-24T03:15:25;8.60;99.90
12827;DHT22;66927;48.812;9.118;2023-02-24T03:17:55;8.50;99.90
12827;DHT22;66927;48.812;9.118;2023-02-24T03:20:26;8.50;99.90
12827;DHT22;66927;48.812;9.118;2023-02-24T03:25:30;8.60;99.90
12827;DHT22;66927;48.812;9.118;2023-02-24T03:28:02;8.60;99.90
12827;DHT22;66927;48.812;9.118;2023-02-24T03:30:41;8.60;99.90
12827;DHT22;66927;48.812;9.118;2023-02-24T03:35:46;8.60;99.90
12827;DHT22;66927;48.812;9.118;2023-02-24T03:38:15;8.50;99.90
12827;DHT22;66927;48.812;9.118;2023-02-24T03:40:41;8.60;99.90
12827;DHT22;66927;48.812;9.118;2023-02-24T03:43:22;8.60;99.90
12827;DHT22;66927;48.812;9.118;2023-02-24T03:45:50;8.60;99.90
12827;DHT22;66927;48.812;9.118;2023-02-24T03:48:16;8.60;99.90
12827;DHT22;66927;48.812;9.118;2023-02-24T03:50:42;8.60;99.90
12827;DHT22;66927;48.812;9.118;2023-02-24T03:56:19;8.60;99.90
12827;DHT22;66927;48.812;9.118;2023-02-24T04:02:19;8.70;99.90
12827;DHT22;66927;48.812;9.118;2023-02-24T04:05:08;8.70;99.90
12827;DHT22;66927;48.812;9.118;2023-02-24T04:07:59;8.60;99.90
12827;DHT22;66927;48.812;9.118;2023-02-24T04:10:33;8.60;99.90
12827;DHT22;66927;48.812;9.118;2023-02-24T04:13:16;8.70;99.90
12827;DHT22;66927;48.812;9.118;2023-02-24T04:15:47;8.60;99.90
12827;DHT22;66927;48.812;9.118;2023-02-24T04:18:20;8.60;99.90
12827;DHT22;66927;48.812;9.118;2023-02-24T04:20:47;8.60;99.90
12827;DHT22;66927;48.812;9.118;2023-02-24T04:23:20;8.60;99.90
12827;DHT22;66927;48.812;9.118;2023-02-24T04:25:49;8.60;99.90
12827;DHT22;66927;48.812;9.118;2023-02-24T04:28:15;8.60;99.90
12827;DHT22;66927;48.812;9.118;2023-02-24T04:30:47;8.50;99.90
12827;DHT22;66927;48.812;9.118;2023-02-24T04:33:14;8.40;99.90
12827;DHT22;66927;48.812;9.118;2023-02-24T04:35:40;8.40;99.90
12827;DHT22;66927;48.812;9.118;2023-02-24T04:38:09;8.40;99.90
12827;DHT22;66927;48.812;9.118;2023-02-24T04:40:35;8.40;99.90
12827;DHT22;66927;48.812;9.118;2023-02-24T04:43:01;8.40;99.90
12827;DHT22;66927;48.812;9.118;2023-02-24T04:45:29;8.30;99.90
12827;DHT22;66927;48.812;9.118;2023-02-24T04:47:59;8.30;99.90
12827;DHT22;66927;48.812;9.118;2023-02-24T04:50:33;8.30;99.90
12827;DHT22;66927;48.812;9.118;2023-02-24T04:53:02;8.40;99.90
12827;DHT22;66927;48.812;9.118;2023-02-24T04:55:32;8.40;99.90
12827;DHT22;66927;48.812;9.118;2023-02-24T04:58:01;8.30;99.90
12827;DHT22;66927;48.812;9.118;2023-02-24T05:00:28;8.40;99.90
12827;DHT22;66927;48.812;9.118;2023-02-24T05:03:02;8.40;99.90
12827;DHT22;66927;48.812;9.118;2023-02-24T05:05:28;8.40;99.90
12827;DHT22;66927;48.812;9.118;2023-02-24T05:07:55;8.40;99.90
12827;DHT22;66927;48.812;9.118;2023-02-24T05:10:22;8.40;99.90
12827;DHT22;66927;48.812;9.118;2023-02-24T05:12:56;8.30;99.90
12827;DHT22;66927;48.812;9.118;2023-02-24T05:15:31;8.30;99.90
12827;DHT22;66927;48.812;9.118;2023-02-24T05:20:24;8.30;99.90
12827;DHT22;66927;48.812;9.118;2023-02-24T05:23:08;8.30;99.90
12827;DHT22;66927;48.812;9.118;2023-02-24T05:25:36;8.20;99.90
12827;DHT22;66927;48.812;9.118;2023-02-24T05:28:05;8.30;99.90
12827;DHT22;66927;48.812;9.118;2023-02-24T05:30:31;8.20;99.90
12827;DHT22;66927;48.812;9.118;2023-02-24T05:32:57;8.30;99.90
12827;DHT22;66927;48.812;9.118;2023-02-24T05:35:23;8.20;99.90
12827;DHT22;66927;48.812;9.118;2023-02-24T05:37:49;8.20;99.90
12827;DHT22;66927;48.812;9.118;2023-02-24T05:40:16;8.10;99.90
12827;DHT22;66927;48.812;9.118;2023-02-24T05:42:44;8.20;99.90
12827;DHT22;66927;48.812;9.118;2023-02-24T05:45:10;8.20;99.90
12827;DHT22;66927;48.812;9.118;2023-02-24T05:47:37;8.20;99.90
12827;DHT22;66927;48.812;9.118;2023-02-24T05:50:04;8.30;99.90
12827;DHT22;66927;48.812;9.118;2023-02-24T05:52:30;8.20;99.90
12827;DHT22;66927;48.812;9.118;2023-02-24T05:54:56;8.10;99.90
12827;DHT22;66927;48.812;9.118;2023-02-24T05:57:22;8.20;99.90
12827;DHT22;66927;48.812;9.118;2023-02-24T05:59:51;8.20;99.90
12827;DHT22;66927;48.812;9.118;2023-02-24T06:02:20;8.30;99.90
12827;DHT22;66927;48.812;9.118;2023-02-24T06:04:52;8.30;99.90
12827;DHT22;66927;48.812;9.118;2023-02-24T06:07:22;8.30;99.90
12827;DHT22;66927;48.812;9.118;2023-02-24T06:09:51;8.20;99.90
12827;DHT22;66927;48.812;9.118;2023-02-24T06:12:29;8.20;99.90
12827;DHT22;66927;48.812;9.118;2023-02-24T06:14:55;8.20;99.90
12827;DHT22;66927;48.812;9.118;2023-02-24T06:17:23;8.30;99.90
12827;DHT22;66927;48.812;9.118;2023-02-24T06:19:51;8.20;99.90
12827;DHT22;66927;48.812;9.118;2023-02-24T06:22:19;8.20;99.90
12827;DHT22;66927;48.812;9.118;2023-02-24T06:24:45;8.20;99.90
12827;DHT22;66927;48.812;9.118;2023-02-24T06:27:15;8.20;99.90
12827;DHT22;66927;48.812;9.118;2023-02-24T06:29:47;8.20;99.90
12827;DHT22;66927;48.812;9.118;2023-02-24T06:32:18;8.30;99.90
12827;DHT22;66927;48.812;9.118;2023-02-24T06:34:43;8.30;99.90
12827;DHT22;66927;48.812;9.118;2023-02-24T06:37:12;8.30;99.90
12827;DHT22;66927;48.812;9.118;2023-02-24T06:39:39;8.20;99.90
12827;DHT22;66927;48.812;9.118;2023-02-24T06:42:05;8.20;99.90
12827;DHT22;66927;48.812;9.118;2023-02-24T06:44:38;8.20;99.90
12827;DHT22;66927;48.812;9.118;2023-02-24T06:47:05;8.20;99.90
12827;DHT22;66927;48.812;9.118;2023-02-24T06:49:31;8.10;99.90
12827;DHT22;66927;48.812;9.118;2023-02-24T06:51:58;8.10;99.90
12827;DHT22;66927;48.812;9.118;2023-02-24T06:54:25;8.10;99.90
12827;DHT22;66927;48.812;9.118;2023-02-24T06:56:53;8.10;99.90
12827;DHT22;66927;48.812;9.118;2023-02-24T06:59:19;8.10;99.90
12827;DHT22;66927;48.812;9.118;2023-02-24T07:01:53;8.10;99.90
12827;DHT22;66927;48.812;9.118;2023-02-24T07:04:19;8.10;99.90
12827;DHT22;66927;48.812;9.118;2023-02-24T07:06:54;8.10;99.90
12827;DHT22;66927;48.812;9.118;2023-02-24T07:09:25;8.20;99.90
12827;DHT22;66927;48.812;9.118;2023-02-24T07:11:52;8.20;99.90
12827;DHT22;66927;48.812;9.118;2023-02-24T07:14:22;8.30;99.90
12827;DHT22;66927;48.812;9.118;2023-02-24T07:16:48;8.30;99.90
12827;DHT22;66927;48.812;9.118;2023-02-24T07:19:26;8.30;99.90
12827;DHT22;66927;48.812;9.118;2023-02-24T07:21:58;8.30;99.90
12827;DHT22;66927;48.812;9.118;2023-02-24T07:24:26;8.30;99.90
12827;DHT22;66927;48.812;9.118;2023-02-24T07:26:59;8.40;99.90
12827;DHT22;66927;48.812;9.118;2023-02-24T07:29:26;8.40;99.90
12827;DHT22;66927;48.812;9.118;2023-02-24T07:31:53;8.30;99.90
12827;DHT22;66927;48.812;9.118;2023-02-24T07:34:23;8.30;99.90
12827;DHT22;66927;48.812;9.118;2023-02-24T07:36:51;8.30;99.90
12827;DHT22;66927;48.812;9.118;2023-02-24T07:39:17;8.30;99.90
12827;DHT22;66927;48.812;9.118;2023-02-24T07:41:44;8.30;99.90
12827;DHT22;66927;48.812;9.118;2023-02-24T07:44:11;8.30;99.90
12827;DHT22;66927;48.812;9.118;2023-02-24T07:46:38;8.30;99.90
12827;DHT22;66927;48.812;9.118;2023-02-24T07:49:05;8.40;99.90
12827;DHT22;66927;48.812;9.118;2023-02-24T07:51:34;8.40;99.90
12827;DHT22;66927;48.812;9.118;2023-02-24T07:54:01;8.50;99.90
12827;DHT22;66927;48.812;9.118;2023-02-24T07:56:29;8.50;99.90
12827;DHT22;66927;48.812;9.118;2023-02-24T07:59:00;8.50;99.90
12827;DHT22;66927;48.812;9.118;2023-02-24T08:01:33;8.50;99.90
12827;DHT22;66927;48.812;9.118;2023-02-24T08:04:04;8.50;99.90
12827;DHT22;66927;48.812;9.118;2023-02-24T08:06:35;8.50;99.90
12827;DHT22;66927;48.812;9.118;2023-02-24T08:09:09;8.60;99.90
12827;DHT22;66927;48.812;9.118;2023-02-24T08:11:55;8.60;99.90
12827;DHT22;66927;48.812;9.118;2023-02-24T08:14:27;8.60;99.90
12827;DHT22;66927;48.812;9.118;2023-02-24T08:16:57;8.60;99.90
12827;DHT22;66927;48.812;9.118;2023-02-24T08:19:28;8.70;99.90
12827;DHT22;66927;48.812;9.118;2023-02-24T08:22:05;8.80;99.90
12827;DHT22;66927;48.812;9.118;2023-02-24T08:27:19;9.10;99.90
12827;DHT22;66927;48.812;9.118;2023-02-24T08:29:52;9.00;99.90
12827;DHT22;66927;48.812;9.118;2023-02-24T08:32:31;9.20;99.90
12827;DHT22;66927;48.812;9.118;2023-02-24T08:35:13;9.20;99.90
12827;DHT22;66927;48.812;9.118;2023-02-24T08:37:45;9.20;99.90
12827;DHT22;66927;48.812;9.118;2023-02-24T08:40:18;9.30;99.90
12827;DHT22;66927;48.812;9.118;2023-02-24T08:43:11;9.40;99.90
12827;DHT22;66927;48.812;9.118;2023-02-24T08:48:43;9.60;99.90
12827;DHT22;66927;48.812;9.118;2023-02-24T08:51:12;9.60;99.90
12827;DHT22;66927;48.812;9.118;2023-02-24T08:53:40;9.60;99.90
12827;DHT22;66927;48.812;9.118;2023-02-24T08:56:10;9.70;99.90
12827;DHT22;66927;48.812;9.118;2023-02-24T08:58:38;9.90;99.90
12827;DHT22;66927;48.812;9.118;2023-02-24T09:01:10;10.10;99.90
12827;DHT22;66927;48.812;9.118;2023-02-24T09:03:46;10.30;99.90
12827;DHT22;66927;48.812;9.118;2023-02-24T09:06:14;10.60;99.90
12827;DHT22;66927;48.812;9.118;2023-02-24T09:08:43;10.80;99.90
12827;DHT22;66927;48.812;9.118;2023-02-24T09:11:14;10.90;99.90
12827;DHT22;66927;48.812;9.118;2023-02-24T09:13:43;10.90;99.90
12827;DHT22;66927;48.812;9.118;2023-02-24T09:16:23;11.00;99.90
12827;DHT22;66927;48.812;9.118;2023-02-24T09:18:50;10.90;99.90
12827;DHT22;66927;48.812;9.118;2023-02-24T09:21:34;10.70;99.90
12827;DHT22;66927;48.812;9.118;2023-02-24T09:24:20;10.70;99.90
12827;DHT22;66927;48.812;9.118;2023-02-24T09:26:53;10.60;99.90
12827;DHT22;66927;48.812;9.118;2023-02-24T09:29:24;10.60;99.90
12827;DHT22;66927;48.812;9.118;2023-02-24T09:32:03;10.60;99.90
12827;DHT22;66927;48.812;9.118;2023-02-24T09:34:31;10.60;99.90
12827;DHT22;66927;48.812;9.118;2023-02-24T09:36:57;10.60;99.90
12827;DHT22;66927;48.812;9.118;2023-02-24T09:39:31;10.70;99.90
12827;DHT22;66927;48.812;9.118;2023-02-24T09:42:19;11.00;99.90
12827;DHT22;66927;48.812;9.118;2023-02-24T09:44:48;11.40;99.90
12827;DHT22;66927;48.812;9.118;2023-02-24T09:47:34;11.60;99.90
12827;DHT22;66927;48.812;9.118;2023-02-24T09:52:51;12.00;99.90
12827;DHT22;66927;48.812;9.118;2023-02-24T09:55:32;12.00;99.90
12827;DHT22;66927;48.812;9.118;2023-02-24T09:58:07;12.10;99.90
12827;DHT22;66927;48.812;9.118;2023-02-24T10:00:59;12.10;99.90
12827;DHT22;66927;48.812;9.118;2023-02-24T10:06:24;11.90;99.90
12827;DHT22;66927;48.812;9.118;2023-02-24T10:11:48;11.60;99.90
12827;DHT22;66927;48.812;9.118;2023-02-24T10:14:28;11.60;99.90
12827;DHT22;66927;48.812;9.118;2023-02-24T10:16:56;11.60;99.90
12827;DHT22;66927;48.812;9.118;2023-02-24T10:19:42;11.50;99.90
12827;DHT22;66927;48.812;9.118;2023-02-24T10:25:09;11.70;99.90
12827;DHT22;66927;48.812;9.118;2023-02-24T10:33:19;11.50;99.90
12827;DHT22;66927;48.812;9.118;2023-02-24T10:35:50;11.30;99.90
12827;DHT22;66927;48.812;9.118;2023-02-24T10:38:19;11.20;99.90
12827;DHT22;66927;48.812;9.118;2023-02-24T10:40:48;11.20;99.90
12827;DHT22;66927;48.812;9.118;2023-02-24T10:43:25;11.10;99.90
12827;DHT22;66927;48.812;9.118;2023-02-24T10:46:00;11.00;99.90
12827;DHT22;66927;48.812;9.118;2023-02-24T10:48:48;10.90;99.90
12827;DHT22;66927;48.812;9.118;2023-02-24T10:51:16;10.80;99.90
12827;DHT22;66927;48.812;9.118;2023-02-24T10:54:23;10.70;99.90
12827;DHT22;66927;48.812;9.118;2023-02-24T10:57:20;10.80;99.90
12827;DHT22;66927;48.812;9.118;2023-02-24T11:00:05;10.90;99.90
12827;DHT22;66927;48.812;9.118;2023-02-24T11:02:49;10.90;99.90
12827;DHT22;66927;48.812;9.118;2023-02-24T11:05:39;11.00;99.90
12827;DHT22;66927;48.812;9.118;2023-02-24T11:08:20;10.90;99.90
12827;DHT22;66927;48.812;9.118;2023-02-24T11:11:33;10.90;99.90
12827;DHT22;66927;48.812;9.118;2023-02-24T11:14:19;10.90;99.90
12827;DHT22;66927;48.812;9.118;2023-02-24T11:17:03;10.90;99.90
12827;DHT22;66927;48.812;9.118;2023-02-24T11:19:42;11.00;99.90
12827;DHT22;66927;48.812;9.118;2023-02-24T11:22:13;10.90;99.90
12827;DHT22;66927;48.812;9.118;2023-02-24T11:24:42;10.90;99.90
12827;DHT22;66927;48.812;9.118;2023-02-24T11:27:09;10.90;99.90
12827;DHT22;66927;48.812;9.118;2023-02-24T11:32:31;10.70;99.90
12827;DHT22;66927;48.812;9.118;2023-02-24T11:40:29;10.80;99.90
12827;DHT22;66927;48.812;9.118;2023-02-24T11:43:15;10.80;99.90
12827;DHT22;66927;48.812;9.118;2023-02-24T11:45:53;10.80;99.90
12827;DHT22;66927;48.812;9.118;2023-02-24T11:48:23;10.80;99.90
12827;DHT22;66927;48.812;9.118;2023-02-24T11:50:55;10.70;99.90
12827;DHT22;66927;48.812;9.118;2023-02-24T11:57:03;10.60;99.90
12827;DHT22;66927;48.812;9.118;2023-02-24T12:02:01;10.60;99.90
12827;DHT22;66927;48.812;9.118;2023-02-24T12:04:33;10.70;99.90
12827;DHT22;66927;48.812;9.118;2023-02-24T12:07:05;10.60;99.90
12827;DHT22;66927;48.812;9.118;2023-02-24T12:09:51;10.70;99.90
12827;DHT22;66927;48.812;9.118;2023-02-24T12:14:53;11.10;99.90
12827;DHT22;66927;48.812;9.118;2023-02-24T12:17:34;11.20;99.90
12827;DHT22;66927;48.812;9.118;2023-02-24T12:22:41;11.70;99.90
12827;DHT22;66927;48.812;9.118;2023-02-24T12:25:14;12.00;99.90
12827;DHT22;66927;48.812;9.118;2023-02-24T12:30:53;12.70;99.90
12827;DHT22;66927;48.812;9.118;2023-02-24T12:36:08;13.10;99.90
12827;DHT22;66927;48.812;9.118;2023-02-24T12:41:40;13.20;99.90
12827;DHT22;66927;48.812;9.118;2023-02-24T12:44:29;13.50;99.90
12827;DHT22;66927;48.812;9.118;2023-02-24T12:47:09;13.90;99.90
12827;DHT22;66927;48.812;9.118;2023-02-24T12:49:45;14.60;99.90
12827;DHT22;66927;48.812;9.118;2023-02-24T12:57:52;17.80;99.90
12827;DHT22;66927;48.812;9.118;2023-02-24T13:00:26;17.80;99.90
12827;DHT22;66927;48.812;9.118;2023-02-24T13:05:52;17.10;99.90
12827;DHT22;66927;48.812;9.118;2023-02-24T13:13:51;15.10;99.90
12827;DHT22;66927;48.812;9.118;2023-02-24T13:16:31;14.40;99.90
12827;DHT22;66927;48.812;9.118;2023-02-24T13:19:06;14.00;99.90
12827;DHT22;66927;48.812;9.118;2023-02-24T13:21:42;13.60;99.90
12827;DHT22;66927;48.812;9.118;2023-02-24T13:24:20;13.30;99.90
12827;DHT22;66927;48.812;9.118;2023-02-24T13:26:46;13.00;99.90
12827;DHT22;66927;48.812;9.118;2023-02-24T13:29:13;12.70;99.90
12827;DHT22;66927;48.812;9.118;2023-02-24T13:31:42;12.40;99.90
12827;DHT22;66927;48.812;9.118;2023-02-24T13:36:50;12.00;99.90
12827;DHT22;66927;48.812;9.118;2023-02-24T13:39:37;11.90;99.90
12827;DHT22;66927;48.812;9.118;2023-02-24T13:44:31;11.60;99.90
12827;DHT22;66927;48.812;9.118;2023-02-24T13:53:01;11.70;99.90
12827;DHT22;66927;48.812;9.118;2023-02-24T13:57:59;11.80;99.90
12827;DHT22;66927;48.812;9.118;2023-02-24T14:03:18;11.80;99.90
12827;DHT22;66927;48.812;9.118;2023-02-24T14:05:45;11.80;99.90
12827;DHT22;66927;48.812;9.118;2023-02-24T14:08:20;11.70;99.90
12827;DHT22;66927;48.812;9.118;2023-02-24T14:10:53;11.60;99.90
12827;DHT22;66927;48.812;9.118;2023-02-24T14:13:23;11.60;99.90
12827;DHT22;66927;48.812;9.118;2023-02-24T14:15:53;11.50;99.90
12827;DHT22;66927;48.812;9.118;2023-02-24T14:18:25;11.40;99.90
12827;DHT22;66927;48.812;9.118;2023-02-24T14:20:52;11.30;99.90
12827;DHT22;66927;48.812;9.118;2023-02-24T14:23:24;11.20;99.90
12827;DHT22;66927;48.812;9.118;2023-02-24T14:26:05;11.00;99.90
12827;DHT22;66927;48.812;9.118;2023-02-24T14:28:37;11.00;99.90
12827;DHT22;66927;48.812;9.118;2023-02-24T14:31:11;11.10;99.90
12827;DHT22;66927;48.812;9.118;2023-02-24T14:33:39;11.00;99.90
12827;DHT22;66927;48.812;9.118;2023-02-24T14:36:12;11.00;99.90
12827;DHT22;66927;48.812;9.118;2023-02-24T14:38:40;10.90;99.90
12827;DHT22;66927;48.812;9.118;2023-02-24T14:41:23;10.80;99.90
12827;DHT22;66927;48.812;9.118;2023-02-24T14:43:51;10.80;99.90
12827;DHT22;66927;48.812;9.118;2023-02-24T14:46:16;10.70;99.90
12827;DHT22;66927;48.812;9.118;2023-02-24T14:48:43;10.70;99.90
12827;DHT22;66927;48.812;9.118;2023-02-24T14:53:57;10.60;99.90
12827;DHT22;66927;48.812;9.118;2023-02-24T14:56:30;10.60;99.90
12827;DHT22;66927;48.812;9.118;2023-02-24T14:59:04;10.60;99.90
12827;DHT22;66927;48.812;9.118;2023-02-24T15:01:51;10.60;99.90
12827;DHT22;66927;48.812;9.118;2023-02-24T15:06:50;10.50;99.90
12827;DHT22;66927;48.812;9.118;2023-02-24T15:09:19;10.40;99.90
12827;DHT22;66927;48.812;9.118;2023-02-24T15:11:46;10.40;99.90
12827;DHT22;66927;48.812;9.118;2023-02-24T15:14:29;10.40;99.90
12827;DHT22;66927;48.812;9.118;2023-02-24T15:17:09;10.30;99.90
12827;DHT22;66927;48.812;9.118;2023-02-24T15:19:37;10.30;99.90
12827;DHT22;66927;48.812;9.118;2023-02-24T15:22:30;10.40;99.90
12827;DHT22;66927;48.812;9.118;2023-02-24T15:25:23;10.30;99.90
12827;DHT22;66927;48.812;9.118;2023-02-24T15:27:55;10.20;99.90
12827;DHT22;66927;48.812;9.118;2023-02-24T15:30:50;10.20;99.90
12827;DHT22;66927;48.812;9.118;2023-02-24T15:33:22;10.30;99.90
12827;DHT22;66927;48.812;9.118;2023-02-24T15:35:54;10.20;99.90
12827;DHT22;66927;48.812;9.118;2023-02-24T15:38:29;10.20;99.90
12827;DHT22;66927;48.812;9.118;2023-02-24T15:40:59;10.20;99.90
12827;DHT22;66927;48.812;9.118;2023-02-24T15:43:47;10.10;99.90
12827;DHT22;66927;48.812;9.118;2023-02-24T15:48:48;10.00;99.90
12827;DHT22;66927;48.812;9.118;2023-02-24T15:54:14;10.00;99.90
12827;DHT22;66927;48.812;9.118;2023-02-24T15:56:40;9.90;99.90
12827;DHT22;66927;48.812;9.118;2023-02-24T15:59:07;9.80;99.90
12827;DHT22;66927;48.812;9.118;2023-02-24T16:01:34;9.80;99.90
12827;DHT22;66927;48.812;9.118;2023-02-24T16:04:01;9.70;99.90
12827;DHT22;66927;48.812;9.118;2023-02-24T16:06:29;9.70;99.90
12827;DHT22;66927;48.812;9.118;2023-02-24T16:08:55;9.70;99.90
12827;DHT22;66927;48.812;9.118;2023-02-24T16:11:25;9.70;99.90
12827;DHT22;66927;48.812;9.118;2023-02-24T16:13:55;9.70;99.90
12827;DHT22;66927;48.812;9.118;2023-02-24T16:16:22;9.80;99.90
12827;DHT22;66927;48.812;9.118;2023-02-24T16:18:49;9.70;99.90
12827;DHT22;66927;48.812;9.118;2023-02-24T16:21:15;9.60;99.90
12827;DHT22;66927;48.812;9.118;2023-02-24T16:23:41;9.60;99.90
12827;DHT22;66927;48.812;9.118;2023-02-24T16:26:17;9.60;99.90
12827;DHT22;66927;48.812;9.118;2023-02-24T16:28:55;9.60;99.90
12827;DHT22;66927;48.812;9.118;2023-02-24T16:31:22;9.50;99.90
12827;DHT22;66927;48.812;9.118;2023-02-24T16:33:47;9.40;99.90
12827;DHT22;66927;48.812;9.118;2023-02-24T16:36:13;9.30;99.90
12827;DHT22;66927;48.812;9.118;2023-02-24T16:38:41;9.20;99.90
12827;DHT22;66927;48.812;9.118;2023-02-24T16:41:12;9.20;99.90
12827;DHT22;66927;48.812;9.118;2023-02-24T16:43:38;9.20;99.90
12827;DHT22;66927;48.812;9.118;2023-02-24T16:46:06;9.20;99.90
12827;DHT22;66927;48.812;9.118;2023-02-24T16:48:33;9.10;99.90
12827;DHT22;66927;48.812;9.118;2023-02-24T16:51:05;9.10;99.90
12827;DHT22;66927;48.812;9.118;2023-02-24T16:53:32;9.00;99.90
12827;DHT22;66927;48.812;9.118;2023-02-24T16:55:58;9.00;99.90
12827;DHT22;66927;48.812;9.118;2023-02-24T16:58:23;9.00;99.90
12827;DHT22;66927;48.812;9.118;2023-02-24T17:00:52;8.90;99.90
12827;DHT22;66927;48.812;9.118;2023-02-24T17:03:30;8.90;99.90
12827;DHT22;66927;48.812;9.118;2023-02-24T17:05:57;8.90;99.90
12827;DHT22;66927;48.812;9.118;2023-02-24T17:08:23;8.90;99.90
12827;DHT22;66927;48.812;9.118;2023-02-24T17:10:49;8.80;99.90
12827;DHT22;66927;48.812;9.118;2023-02-24T17:13:18;8.70;99.90
12827;DHT22;66927;48.812;9.118;2023-02-24T17:15:44;8.80;99.90
12827;DHT22;66927;48.812;9.118;2023-02-24T17:18:10;8.80;99.90
12827;DHT22;66927;48.812;9.118;2023-02-24T17:20:39;8.70;99.90
12827;DHT22;66927;48.812;9.118;2023-02-24T17:23:05;8.70;99.90
12827;DHT22;66927;48.812;9.118;2023-02-24T17:25:32;8.60;99.90
12827;DHT22;66927;48.812;9.118;2023-02-24T17:27:58;8.60;99.90
12827;DHT22;66927;48.812;9.118;2023-02-24T17:30:29;8.50;99.90
12827;DHT22;66927;48.812;9.118;2023-02-24T17:32:55;8.50;99.90
12827;DHT22;66927;48.812;9.118;2023-02-24T17:35:22;8.50;99.90
12827;DHT22;66927;48.812;9.118;2023-02-24T17:37:48;8.50;99.90
12827;DHT22;66927;48.812;9.118;2023-02-24T17:40:13;8.40;99.90
12827;DHT22;66927;48.812;9.118;2023-02-24T17:42:39;8.40;99.90
12827;DHT22;66927;48.812;9.118;2023-02-24T17:45:06;8.50;99.90
12827;DHT22;66927;48.812;9.118;2023-02-24T17:47:33;8.40;99.90
12827;DHT22;66927;48.812;9.118;2023-02-24T17:49:59;8.40;99.90
12827;DHT22;66927;48.812;9.118;2023-02-24T17:52:25;8.50;99.90
12827;DHT22;66927;48.812;9.118;2023-02-24T17:54:51;8.50;99.90
12827;DHT22;66927;48.812;9.118;2023-02-24T17:57:17;8.40;99.90
12827;DHT22;66927;48.812;9.118;2023-02-24T17:59:43;8.40;99.90
12827;DHT22;66927;48.812;9.118;2023-02-24T18:02:15;8.50;99.90
12827;DHT22;66927;48.812;9.118;2023-02-24T18:04:41;8.50;99.90
12827;DHT22;66927;48.812;9.118;2023-02-24T18:07:08;8.50;99.90
12827;DHT22;66927;48.812;9.118;2023-02-24T18:09:35;8.50;99.90
12827;DHT22;66927;48.812;9.118;2023-02-24T18:12:00;8.50;99.90
12827;DHT22;66927;48.812;9.118;2023-02-24T18:14:26;8.50;99.90
12827;DHT22;66927;48.812;9.118;2023-02-24T18:16:52;8.50;99.90
12827;DHT22;66927;48.812;9.118;2023-02-24T18:19:18;8.50;99.90